Time;durP1;ratioP1;P1;durP2;ratioP2;P2;SDS_P1;SDS_P2;PMS_P1;PMS_P2;Temp;Humidity;BMP_temperature;BMP_pressure;BME280_temperature;BME280_humidity;BME280_pressure;Samples;Min_cycle;Max_cycle;Signal;HPM_P1;HPM_P2
2022/02/13 00:00:24;;;;;;;7.80;5.80;;;;;;;3.15;65.49;102963.41;1874920;76;21080;-65
2022/02/13 00:02:53;;;;;;;9.33;5.60;;;;;;;3.21;65.40;102968.77;1875504;76;21102;-63
2022/02/13 00:05:22;;;;;;;9.30;5.55;;;;;;;3.23;64.96;102965.81;1888073;75;21462;-62
2022/02/13 00:07:51;;;;;;;10.63;6.20;;;;;;;3.21;64.92;102970.07;1846490;77;21157;-62
2022/02/13 00:10:19;;;;;;;8.35;4.45;;;;;;;3.20;64.96;102960.08;1846449;78;21043;-61
2022/02/13 00:12:50;;;;;;;6.78;3.95;;;;;;;3.22;64.62;102974.45;1846402;78;21083;-62
2022/02/13 00:15:18;;;;;;;8.93;4.60;;;;;;;3.20;64.84;102972.23;1846320;78;21109;-61
2022/02/13 00:17:47;;;;;;;6.92;4.45;;;;;;;3.17;64.62;102981.25;1846518;78;21082;-61
2022/02/13 00:20:16;;;;;;;8.90;4.65;;;;;;;3.15;64.73;102976.42;1854102;77;21019;-61
2022/02/13 00:22:44;;;;;;;6.35;4.33;;;;;;;3.17;64.61;102973.04;1912223;75;21549;-61
2022/02/13 00:25:14;;;;;;;6.85;4.25;;;;;;;3.22;64.53;102975.75;1912286;75;21088;-61
2022/02/13 00:27:45;;;;;;;8.18;4.17;;;;;;;3.26;64.44;102976.29;1912349;75;21052;-61
2022/02/13 00:30:14;;;;;;;6.62;3.80;;;;;;;3.25;64.50;102979.75;1910077;75;21116;-60
2022/02/13 00:32:46;;;;;;;5.62;3.80;;;;;;;3.20;64.42;102983.95;1911234;75;21020;-61
2022/02/13 00:35:16;;;;;;;6.40;2.45;;;;;;;3.19;64.44;102986.07;1914901;75;21443;-60
2022/02/13 00:37:45;;;;;;;4.00;2.60;;;;;;;3.17;64.38;102989.05;1915049;75;21118;-60
2022/02/13 00:40:14;;;;;;;5.10;2.30;;;;;;;3.14;64.45;102987.69;1914788;75;21060;-60
2022/02/13 00:42:42;;;;;;;4.20;2.22;;;;;;;3.05;64.20;102983.97;1910283;75;21005;-61
2022/02/13 00:45:12;;;;;;;2.67;1.60;;;;;;;2.97;63.90;102980.29;1912376;75;21118;-61
2022/02/13 00:47:41;;;;;;;5.92;2.42;;;;;;;2.99;63.75;102978.61;1912364;75;21110;-61
2022/02/13 00:50:10;;;;;;;2.45;1.40;;;;;;;3.00;63.78;102987.29;1912372;75;21130;-60
2022/02/13 00:52:39;;;;;;;1.77;1.42;;;;;;;2.98;63.50;102986.36;1912434;75;21094;-60
2022/02/13 00:55:08;;;;;;;2.62;1.40;;;;;;;2.98;63.31;102991.57;1910147;75;21075;-61
2022/02/13 00:57:37;;;;;;;5.45;1.70;;;;;;;3.00;63.35;102998.57;1912344;75;21118;-60
2022/02/13 01:00:07;;;;;;;2.65;1.22;;;;;;;3.03;63.26;102993.89;1912387;75;21028;-61
2022/02/13 01:02:35;;;;;;;3.37;1.72;;;;;;;3.02;63.01;102988.21;1912476;75;21025;-61
2022/02/13 01:05:04;;;;;;;2.20;1.50;;;;;;;3.00;63.05;102993.37;1912095;75;21036;-60
2022/02/13 01:07:35;;;;;;;2.72;1.52;;;;;;;2.98;63.02;102989.84;1850744;77;21024;-61
2022/02/13 01:10:23;;;;;;;1.82;1.07;;;;;;;2.95;63.11;102991.47;1907464;75;21104;-61
2022/02/13 01:12:52;;;;;;;5.47;1.70;;;;;;;2.93;63.16;102997.05;1919141;75;21134;-59
2022/02/13 01:15:21;;;;;;;3.40;1.92;;;;;;;2.89;63.25;102998.26;1919144;75;21533;-62
2022/02/13 01:17:50;;;;;;;3.75;1.90;;;;;;;2.85;63.41;102999.44;1919135;74;21039;-61
2022/02/13 01:20:18;;;;;;;2.85;1.77;;;;;;;2.79;63.46;103000.58;1918031;74;21068;-63
2022/02/13 01:22:47;;;;;;;4.17;2.08;;;;;;;2.72;63.45;103003.83;1918935;75;21095;-61
2022/02/13 01:25:16;;;;;;;3.75;1.82;;;;;;;2.59;63.51;103006.05;1919152;75;21486;-62
2022/02/13 01:27:45;;;;;;;2.85;1.60;;;;;;;2.48;63.64;103007.45;1919211;75;21556;-61
2022/02/13 01:30:14;;;;;;;5.40;2.30;;;;;;;2.33;63.82;103016.08;1919249;75;21044;-61
2022/02/13 01:32:43;;;;;;;4.05;1.67;;;;;;;2.22;64.02;103022.23;1919276;75;21129;-60
2022/02/13 01:35:12;;;;;;;4.60;1.92;;;;;;;2.11;64.20;103023.18;1916800;75;21139;-60
2022/02/13 01:37:41;;;;;;;2.70;1.82;;;;;;;2.02;64.36;103025.48;1891645;76;21464;-60
2022/02/13 01:40:10;;;;;;;5.30;2.00;;;;;;;1.93;64.50;103029.52;1891415;76;21484;-60
2022/02/13 01:42:39;;;;;;;4.10;2.10;;;;;;;1.83;64.72;103036.55;1897471;74;21101;-60
2022/02/13 01:45:09;;;;;;;4.47;1.80;;;;;;;1.71;64.92;103031.80;1919097;75;21511;-60
2022/02/13 01:47:40;;;;;;;4.22;2.65;;;;;;;1.62;65.15;103041.88;1919150;75;21036;-61
2022/02/13 01:50:11;;;;;;;4.87;2.50;;;;;;;1.58;65.23;103036.53;1919189;75;21044;-62
2022/02/13 01:52:42;;;;;;;3.60;2.20;;;;;;;1.53;65.24;103041.16;1915759;75;21136;-62
2022/02/13 01:55:11;;;;;;;5.90;2.95;;;;;;;1.48;65.33;103039.23;1891351;76;21091;-63
2022/02/13 01:57:40;;;;;;;6.75;2.60;;;;;;;1.43;65.43;103048.14;1891424;76;21061;-61
2022/02/13 02:00:09;;;;;;;4.17;2.40;;;;;;;1.38;65.55;103053.58;1891443;76;21025;-62
2022/02/13 02:02:41;;;;;;;6.45;2.33;;;;;;;1.34;65.58;103051.28;1891647;76;21456;-60
2022/02/13 02:05:10;;;;;;;5.83;2.22;;;;;;;1.31;65.62;103058.08;1891589;76;21455;-60
2022/02/13 02:07:39;;;;;;;7.97;2.33;;;;;;;1.27;65.72;103070.48;1896961;75;21111;-61
2022/02/13 02:10:08;;;;;;;8.18;2.33;;;;;;;1.20;65.99;103063.29;1918687;74;21605;-61
2022/02/13 02:12:38;;;;;;;5.47;2.37;;;;;;;1.15;66.11;103068.33;1918557;75;21052;-60
2022/02/13 02:15:08;;;;;;;6.12;2.42;;;;;;;1.11;66.18;103068.62;1918605;75;21052;-62
2022/02/13 02:17:36;;;;;;;4.57;2.57;;;;;;;1.10;66.28;103061.65;1916891;75;21048;-64
2022/02/13 02:20:06;;;;;;;6.35;2.83;;;;;;;1.09;66.27;103065.09;1884843;76;21034;-63
2022/02/13 02:22:35;;;;;;;5.25;3.02;;;;;;;1.07;66.25;103071.03;1885013;76;21084;-64
2022/02/13 02:25:06;;;;;;;5.67;2.60;;;;;;;1.01;66.36;103083.36;1885025;76;21103;-64
2022/02/13 02:27:35;;;;;;;5.10;2.85;;;;;;;0.95;66.45;103086.60;1884939;76;21013;-62
2022/02/13 02:30:04;;;;;;;8.43;3.10;;;;;;;0.91;66.55;103090.34;1885015;76;21014;-62
2022/02/13 02:32:33;;;;;;;6.15;3.20;;;;;;;0.89;66.57;103101.06;1885882;75;20989;-62
2022/02/13 02:35:04;;;;;;;6.95;3.08;;;;;;;0.81;66.73;103099.45;1884805;76;21013;-63
2022/02/13 02:37:33;;;;;;;7.17;3.10;;;;;;;0.76;66.96;103096.69;1884958;76;20997;-64
2022/02/13 02:40:01;;;;;;;6.92;3.60;;;;;;;0.72;66.93;103098.70;1884981;76;21514;-63
2022/02/13 02:42:30;;;;;;;8.78;3.10;;;;;;;0.65;67.09;103092.80;1884923;76;21041;-61
2022/02/13 02:44:59;;;;;;;6.33;3.35;;;;;;;0.61;67.37;103099.08;1917349;75;21032;-61
2022/02/13 02:47:28;;;;;;;6.80;3.02;;;;;;;0.56;67.51;103109.28;1918336;75;21537;-61
2022/02/13 02:49:56;;;;;;;7.72;3.67;;;;;;;0.54;67.51;103112.22;1918459;75;21459;-61
2022/02/13 02:52:25;;;;;;;11.25;3.70;;;;;;;0.49;67.65;103113.73;1918382;75;21133;-60
2022/02/13 02:54:54;;;;;;;8.65;3.37;;;;;;;0.44;67.74;103104.88;1918415;75;21064;-62
2022/02/13 02:57:23;;;;;;;6.90;4.17;;;;;;;0.41;67.81;103104.75;1918432;75;21499;-61
2022/02/13 02:59:51;;;;;;;6.20;3.08;;;;;;;0.36;67.90;103111.93;1884756;76;21025;-60
2022/02/13 03:02:20;;;;;;;5.75;3.17;;;;;;;0.31;67.97;103109.55;1885069;76;21111;-61
2022/02/13 03:04:48;;;;;;;8.05;3.70;;;;;;;0.24;68.05;103104.97;1885071;76;21611;-61
2022/02/13 03:07:18;;;;;;;8.88;3.42;;;;;;;0.18;68.26;103113.38;1884901;76;21484;-60
2022/02/13 03:09:46;;;;;;;6.70;3.27;;;;;;;0.15;68.43;103118.41;1905721;75;21061;-60
2022/02/13 03:12:15;;;;;;;8.18;3.52;;;;;;;0.15;68.47;103125.31;1891891;76;21065;-62
2022/02/13 03:14:44;;;;;;;8.38;3.55;;;;;;;0.12;68.58;103119.98;1891950;76;21821;-60
2022/02/13 03:17:13;;;;;;;7.80;3.77;;;;;;;0.12;68.71;103117.40;1892009;76;21468;-61
2022/02/13 03:19:42;;;;;;;8.23;3.75;;;;;;;0.09;68.75;103115.58;1891943;76;21081;-60
2022/02/13 03:22:10;;;;;;;10.32;4.17;;;;;;;0.07;68.85;103118.91;1892212;76;21045;-61
2022/02/13 03:24:39;;;;;;;7.97;3.65;;;;;;;0.05;68.93;103125.73;1866019;76;21041;-61
2022/02/13 03:27:08;;;;;;;13.98;4.20;;;;;;;0.04;68.94;103126.53;1861944;77;21613;-60
2022/02/13 03:29:36;;;;;;;10.98;4.85;;;;;;;-0.02;69.01;103124.18;1862131;77;21025;-61
2022/02/13 03:32:06;;;;;;;8.60;4.15;;;;;;;-0.03;69.16;103131.46;1862070;77;21033;-60
2022/02/13 03:34:35;;;;;;;8.18;3.80;;;;;;;-0.06;69.20;103124.84;1864056;76;21029;-60
2022/02/13 03:37:04;;;;;;;7.72;3.90;;;;;;;-0.07;69.12;103133.87;1862008;77;21046;-60
2022/02/13 03:39:33;;;;;;;12.65;4.47;;;;;;;-0.10;69.20;103130.72;1857506;77;21058;-62
2022/02/13 03:42:02;;;;;;;8.55;3.80;;;;;;;-0.11;69.32;103134.53;1855339;77;21189;-61
2022/02/13 03:44:33;;;;;;;7.65;3.72;;;;;;;-0.13;69.43;103140.97;1823610;79;21079;-60
2022/02/13 03:47:01;;;;;;;9.10;3.90;;;;;;;-0.15;69.57;103134.80;1794142;79;21065;-61
2022/02/13 03:49:30;;;;;;;9.10;4.00;;;;;;;-0.17;69.61;103137.73;1791820;80;21053;-60
2022/02/13 03:51:59;;;;;;;9.08;4.45;;;;;;;-0.20;69.67;103134.63;1793895;80;21104;-60
2022/02/13 03:54:28;;;;;;;9.10;4.58;;;;;;;-0.22;69.63;103136.68;1793902;80;21559;-62
2022/02/13 03:56:57;;;;;;;12.03;4.92;;;;;;;-0.26;69.65;103146.40;1763794;81;21076;-61
2022/02/13 03:59:25;;;;;;;9.78;4.78;;;;;;;-0.28;69.64;103138.98;1781696;80;21068;-61
2022/02/13 04:01:54;;;;;;;15.93;5.22;;;;;;;-0.31;69.68;103136.27;1763792;81;21151;-61
2022/02/13 04:04:23;;;;;;;9.58;5.00;;;;;;;-0.32;69.83;103140.96;1793965;80;21056;-61
2022/02/13 04:06:52;;;;;;;16.23;5.25;;;;;;;-0.35;69.90;103140.81;1763673;81;21250;-61
2022/02/13 04:09:20;;;;;;;16.07;5.70;;;;;;;-0.37;69.96;103146.33;1794035;80;21565;-62
2022/02/13 04:11:49;;;;;;;12.30;4.72;;;;;;;-0.41;70.00;103146.22;1790381;79;21537;-60
2022/02/13 04:14:20;;;;;;;12.65;5.87;;;;;;;-0.44;70.08;103147.36;1858241;77;21499;-61
2022/02/13 04:16:48;;;;;;;12.75;5.47;;;;;;;-0.48;70.23;103146.76;1854388;77;21069;-62
2022/02/13 04:19:17;;;;;;;11.18;5.53;;;;;;;-0.50;70.35;103150.98;1854317;77;21046;-62
2022/02/13 04:21:46;;;;;;;13.55;5.47;;;;;;;-0.52;70.41;103152.59;1854393;77;21582;-63
2022/02/13 04:24:15;;;;;;;15.30;6.08;;;;;;;-0.52;70.37;103155.59;1856166;77;21055;-62
2022/02/13 04:26:44;;;;;;;16.27;6.00;;;;;;;-0.55;70.37;103168.00;1858358;76;21521;-63
2022/02/13 04:29:13;;;;;;;10.10;4.80;;;;;;;-0.58;70.47;103170.44;1858264;77;21441;-62
2022/02/13 04:31:41;;;;;;;20.12;6.03;;;;;;;-0.59;70.60;103176.03;1858200;77;21010;-62
2022/02/13 04:34:11;;;;;;;24.18;5.95;;;;;;;-0.59;70.59;103176.41;1858327;77;21038;-61
2022/02/13 04:39:29;;;;;;;20.45;6.12;;;;;;;-0.60;70.59;103178.54;1867336;76;21076;-60
2022/02/13 04:41:58;;;;;;;12.73;5.37;;;;;;;-0.60;70.52;103182.42;1874301;76;21037;-60
2022/02/13 04:44:26;;;;;;;15.98;5.45;;;;;;;-0.61;70.64;103188.40;1865688;76;21009;-62
2022/02/13 04:46:55;;;;;;;21.35;6.40;;;;;;;-0.57;70.88;103194.22;1861031;77;21049;-62
2022/02/13 04:49:24;;;;;;;14.93;5.35;;;;;;;-0.46;71.06;103189.51;1861774;77;21081;-61
2022/02/13 04:51:52;;;;;;;16.25;5.28;;;;;;;-0.33;71.02;103183.19;1861826;77;21131;-62
2022/02/13 04:54:21;;;;;;;12.78;5.58;;;;;;;-0.17;70.85;103193.42;1861853;77;21041;-63
2022/02/13 04:56:51;;;;;;;16.20;5.65;;;;;;;0.06;70.62;103194.87;1861613;77;21100;-61
2022/02/13 04:59:20;;;;;;;13.32;5.90;;;;;;;0.37;70.52;103197.95;1861742;77;21163;-62
2022/02/13 05:01:49;;;;;;;19.92;7.40;;;;;;;0.79;70.42;103199.66;1836731;77;21053;-62
2022/02/13 05:04:17;;;;;;;21.07;5.97;;;;;;;1.31;70.37;103199.54;1831085;78;21092;-60
2022/02/13 05:06:46;;;;;;;10.98;4.87;;;;;;;1.96;70.13;103203.28;1831002;78;21093;-62
2022/02/13 05:09:15;;;;;;;15.10;5.58;;;;;;;2.38;69.86;103205.59;1832893;77;21068;-62
2022/02/13 05:11:44;;;;;;;13.45;4.95;;;;;;;2.62;69.61;103206.45;1831075;78;21472;-62
2022/02/13 05:14:13;;;;;;;20.27;6.10;;;;;;;2.84;69.23;103204.14;1830968;78;21151;-63
2022/02/13 05:16:41;;;;;;;18.62;6.60;;;;;;;3.09;68.87;103210.98;1830984;78;21057;-60
2022/02/13 05:19:10;;;;;;;16.97;6.70;;;;;;;3.34;68.55;103206.95;1844868;77;21453;-62
2022/02/13 05:21:40;;;;;;;17.90;7.92;;;;;;;3.58;68.33;103210.33;1840114;78;21084;-61
2022/02/13 05:24:09;;;;;;;25.70;7.42;;;;;;;3.85;68.04;103206.34;1838474;78;21029;-60
2022/02/13 05:26:38;;;;;;;14.87;5.78;;;;;;;4.10;67.72;103210.92;1831039;78;21026;-60
2022/02/13 05:29:07;;;;;;;11.38;5.03;;;;;;;4.34;67.50;103209.82;1830989;77;21106;-63
2022/02/13 05:31:36;;;;;;;10.78;6.17;;;;;;;4.66;67.09;103213.24;1832800;77;21017;-61
2022/02/13 05:34:05;;;;;;;11.85;5.72;;;;;;;5.06;66.64;103218.14;1831058;78;21065;-61
2022/02/13 05:36:34;;;;;;;13.50;5.15;;;;;;;5.46;66.09;103219.45;1831193;78;21463;-61
2022/02/13 05:39:03;;;;;;;9.80;4.85;;;;;;;5.86;65.83;103224.23;1833902;77;21510;-61
2022/02/13 05:41:31;;;;;;;8.73;3.80;;;;;;;6.21;65.54;103222.77;1836459;78;21502;-61
2022/02/13 05:44:00;;;;;;;10.98;4.80;;;;;;;6.62;65.26;103220.91;1838215;77;21208;-60
2022/02/13 05:46:29;;;;;;;8.53;4.45;;;;;;;6.98;64.71;103226.72;1836032;78;21615;-62
2022/02/13 05:48:59;;;;;;;12.60;4.85;;;;;;;7.29;63.94;103231.56;1836034;78;21506;-63
2022/02/13 05:51:28;;;;;;;11.53;5.15;;;;;;;7.61;63.12;103231.12;1835922;77;21579;-64
2022/02/13 05:53:57;;;;;;;9.10;3.90;;;;;;;8.01;62.55;103218.95;1837924;77;22593;-66
2022/02/13 05:56:26;;;;;;;11.40;4.30;;;;;;;8.35;61.25;103219.29;1836307;78;21588;-62
2022/02/13 05:58:55;;;;;;;8.83;3.40;;;;;;;8.68;60.56;103228.81;1835737;78;21498;-63
2022/02/13 06:01:24;;;;;;;12.15;4.28;;;;;;;8.87;59.52;103240.38;1836285;78;21557;-63
2022/02/13 06:03:52;;;;;;;7.80;3.90;;;;;;;9.13;58.40;103231.81;1835998;78;21083;-61
2022/02/13 06:06:21;;;;;;;9.98;3.60;;;;;;;9.42;57.78;103233.73;1838359;77;21079;-63
2022/02/13 06:08:50;;;;;;;10.40;3.98;;;;;;;9.69;57.44;103232.12;1837899;77;21498;-64
2022/02/13 06:11:19;;;;;;;15.40;4.15;;;;;;;9.93;56.17;103232.22;1836104;78;21079;-63
2022/02/13 06:13:47;;;;;;;7.47;3.22;;;;;;;10.25;55.64;103241.95;1836213;78;21071;-61
2022/02/13 06:16:16;;;;;;;8.40;3.67;;;;;;;10.58;55.10;103246.87;1858844;77;21129;-61
2022/02/13 06:18:45;;;;;;;8.85;3.67;;;;;;;10.73;54.21;103244.23;1866545;76;21099;-63
2022/02/13 06:21:13;;;;;;;9.30;3.47;;;;;;;11.11;53.95;103239.40;1835984;78;21145;-62
2022/02/13 06:23:43;;;;;;;11.97;4.03;;;;;;;11.22;52.57;103237.20;1836087;78;21067;-64
2022/02/13 06:26:14;;;;;;;8.00;3.47;;;;;;;11.40;52.00;103235.84;1836069;78;21044;-62
2022/02/13 06:28:43;;;;;;;8.83;3.90;;;;;;;11.62;51.34;103236.66;1836239;78;21047;-62
2022/02/13 06:31:13;;;;;;;6.37;3.83;;;;;;;11.31;50.94;103242.01;1854396;77;21482;-61
2022/02/13 06:33:41;;;;;;;7.80;3.83;;;;;;;11.04;50.42;103242.92;1866969;76;21031;-60
2022/02/13 06:36:10;;;;;;;6.83;2.70;;;;;;;10.42;50.82;103244.23;1866704;76;21016;-60
2022/02/13 06:38:39;;;;;;;5.35;3.30;;;;;;;10.04;51.04;103241.47;1842337;76;21130;-63
2022/02/13 06:41:08;;;;;;;6.80;3.90;;;;;;;9.68;50.98;103243.06;1865446;77;21153;-62
2022/02/13 06:43:36;;;;;;;8.33;3.20;;;;;;;9.90;51.06;103237.45;1867303;76;21093;-63
2022/02/13 06:46:06;;;;;;;9.63;3.72;;;;;;;9.48;51.36;103237.73;1865464;76;21007;-63
2022/02/13 06:48:35;;;;;;;8.30;3.87;;;;;;;8.75;51.50;103243.34;1867205;77;21137;-60
2022/02/13 06:51:04;;;;;;;7.08;3.40;;;;;;;8.47;52.04;103243.95;1867212;76;21119;-61
2022/02/13 06:53:32;;;;;;;10.43;3.87;;;;;;;8.06;52.34;103233.88;1867524;76;21564;-59
2022/02/13 06:56:01;;;;;;;10.13;3.47;;;;;;;7.72;52.76;103232.13;1864983;76;21067;-61
2022/02/13 06:58:30;;;;;;;7.08;3.50;;;;;;;7.64;53.22;103228.55;1867412;76;21478;-61
2022/02/13 07:01:00;;;;;;;18.73;5.92;;;;;;;7.29;53.52;103234.19;1866726;77;21447;-61
2022/02/13 07:03:48;;;;;;;10.90;4.62;;;;;;;7.01;54.01;103239.84;1838358;77;21122;-61
2022/02/13 07:06:17;;;;;;;13.20;4.33;;;;;;;6.93;54.30;103231.88;1803737;79;21121;-61
2022/02/13 07:08:45;;;;;;;10.40;4.67;;;;;;;6.74;54.67;103225.46;1837772;78;21135;-62
2022/02/13 07:11:14;;;;;;;9.48;4.50;;;;;;;6.66;55.04;103228.36;1837801;78;21022;-59
2022/02/13 07:13:43;;;;;;;9.78;3.92;;;;;;;6.77;54.93;103225.52;1822679;77;21553;-60
2022/02/13 07:16:12;;;;;;;12.53;4.70;;;;;;;7.14;54.56;103224.80;1846792;77;21502;-62
2022/02/13 07:18:41;;;;;;;12.45;4.78;;;;;;;7.01;54.61;103230.68;1846969;77;21052;-63
2022/02/13 07:21:09;;;;;;;10.08;4.30;;;;;;;7.06;54.49;103222.47;1846836;78;21072;-61
2022/02/13 07:23:38;;;;;;;14.40;4.90;;;;;;;7.25;54.23;103221.00;1847078;78;21131;-60
2022/02/13 07:26:07;;;;;;;10.23;4.47;;;;;;;7.24;54.07;103224.50;1811925;78;21137;-62
2022/02/13 07:31:22;;;;;;;9.98;4.70;;;;;;;8.51;52.96;103222.55;1836395;78;21032;-63
2022/02/13 07:33:51;;;;;;;10.48;4.30;;;;;;;9.07;51.29;103213.35;1836370;78;21106;-61
2022/02/13 07:36:20;;;;;;;9.33;4.60;;;;;;;9.44;50.67;103217.11;1863276;77;21031;-63
2022/02/13 07:38:48;;;;;;;11.93;4.55;;;;;;;8.81;50.92;103214.04;1872674;76;21035;-61
2022/02/13 07:41:17;;;;;;;13.08;4.25;;;;;;;8.35;51.52;103216.22;1858244;76;21125;-61
2022/02/13 07:43:46;;;;;;;14.33;5.42;;;;;;;7.92;51.82;103213.16;1841530;78;21051;-61
2022/02/13 07:46:14;;;;;;;11.33;4.72;;;;;;;8.24;51.99;103218.73;1851613;77;21112;-60
2022/02/13 07:48:43;;;;;;;13.18;5.10;;;;;;;8.28;52.14;103217.02;1836254;78;21030;-61
2022/02/13 07:51:12;;;;;;;11.22;4.12;;;;;;;8.30;52.30;103216.20;1836736;78;21031;-60
2022/02/13 07:53:45;;;;;;;11.25;4.45;;;;;;;8.58;51.82;103220.88;1798624;80;21512;-60
2022/02/13 07:56:14;;;;;;;10.82;4.37;;;;;;;10.52;50.05;103208.69;1843093;78;21126;-60
2022/02/13 07:58:43;;;;;;;10.58;4.35;;;;;;;12.35;47.38;103200.19;1802146;79;21375;-62
2022/02/13 08:01:11;;;;;;;11.45;4.45;;;;;;;13.23;45.54;103203.39;1829837;78;21051;-62
2022/02/13 08:03:40;;;;;;;12.75;4.37;;;;;;;14.10;43.71;103196.98;1846557;77;21163;-61
2022/02/13 08:06:09;;;;;;;11.50;3.95;;;;;;;13.85;43.27;103207.08;1853260;77;21058;-62
2022/02/13 08:08:38;;;;;;;10.88;3.27;;;;;;;13.96;43.18;103210.00;1853448;77;21061;-61
2022/02/13 08:11:07;;;;;;;12.45;3.08;;;;;;;14.39;41.82;103201.44;1852206;77;21544;-60
2022/02/13 08:13:36;;;;;;;7.92;4.53;;;;;;;13.66;41.52;103196.28;1845022;78;21130;-64
2022/02/13 08:16:05;;;;;;;9.08;4.10;;;;;;;13.16;42.30;103191.98;1845065;78;21033;-63
2022/02/13 08:18:34;;;;;;;9.33;2.55;;;;;;;12.96;41.65;103197.47;1845071;78;21531;-62
2022/02/13 08:21:03;;;;;;;3.40;1.65;;;;;;;12.69;40.89;103202.14;1845004;78;21139;-63
2022/02/13 08:23:31;;;;;;;7.35;1.75;;;;;;;12.34;40.46;103195.36;1845123;78;21045;-63
2022/02/13 08:26:00;;;;;;;6.00;2.02;;;;;;;11.63;40.84;103195.30;1845045;78;21076;-64
2022/02/13 08:28:31;;;;;;;4.70;1.87;;;;;;;11.25;40.75;103199.84;1845091;78;21163;-65
2022/02/13 08:31:00;;;;;;;7.12;2.60;;;;;;;10.09;42.47;103200.66;1845073;78;21119;-63
2022/02/13 08:33:29;;;;;;;6.33;2.33;;;;;;;10.27;42.49;103201.14;1845135;78;21558;-62
2022/02/13 08:35:58;;;;;;;6.15;2.60;;;;;;;9.48;43.39;103207.48;1845178;78;21049;-65
2022/02/13 08:38:27;;;;;;;5.17;1.82;;;;;;;11.23;42.15;103198.06;1845260;78;21122;-65
2022/02/13 08:40:57;;;;;;;4.17;2.10;;;;;;;13.01;40.19;103196.12;1845044;78;21507;-65
2022/02/13 08:43:26;;;;;;;8.90;2.67;;;;;;;14.34;38.46;103195.33;1845115;78;21060;-65
2022/02/13 08:45:56;;;;;;;6.67;2.37;;;;;;;14.74;37.12;103187.62;1845300;77;21088;-61
2022/02/13 08:48:24;;;;;;;6.10;2.80;;;;;;;13.08;38.60;103188.09;1846898;78;21095;-64
2022/02/13 08:50:53;;;;;;;4.87;2.17;;;;;;;12.62;39.39;103193.83;1843650;77;21054;-61
2022/02/13 08:53:22;;;;;;;5.78;2.17;;;;;;;11.31;40.31;103193.21;1834923;78;21564;-65
2022/02/13 08:55:51;;;;;;;6.47;2.75;;;;;;;10.26;41.73;103196.77;1835976;78;21042;-64
2022/02/13 08:58:20;;;;;;;10.03;2.65;;;;;;;11.52;41.09;103177.73;1865517;75;21159;-65
2022/02/13 09:00:49;;;;;;;3.25;1.72;;;;;;;13.64;38.42;103176.90;1867338;77;21218;-66
2022/02/13 09:03:17;;;;;;;7.90;2.12;;;;;;;13.66;37.98;103173.32;1837674;77;21168;-65
2022/02/13 09:05:46;;;;;;;7.25;2.60;;;;;;;13.99;37.54;103180.84;1856308;77;21118;-63
2022/02/13 09:08:15;;;;;;;12.70;3.00;;;;;;;13.76;37.38;103164.83;1819583;78;21072;-66
2022/02/13 09:10:43;;;;;;;6.80;2.55;;;;;;;13.77;37.16;103159.94;1836697;78;21046;-66
2022/02/13 09:13:12;;;;;;;3.55;1.77;;;;;;;15.22;36.35;103158.87;1836356;78;21060;-64
2022/02/13 09:15:41;;;;;;;4.30;2.52;;;;;;;16.47;35.01;103160.95;1836549;78;21063;-65
2022/02/13 09:18:14;;;;;;;5.62;2.27;;;;;;;16.70;34.03;103148.84;1836328;78;21024;-64
2022/02/13 09:20:46;;;;;;;9.28;2.22;;;;;;;17.34;32.83;103153.73;1836684;78;21115;-64
2022/02/13 09:23:24;;;;;;;3.85;2.30;;;;;;;17.39;32.40;103146.05;1836200;78;21087;-65
2022/02/13 09:25:51;;;;;;;2.65;1.62;;;;;;;17.51;31.35;103145.23;1836212;78;21130;-64
2022/02/13 09:28:20;;;;;;;5.67;1.87;;;;;;;17.09;31.45;103148.69;1836367;78;21416;-65
2022/02/13 09:30:50;;;;;;;9.03;2.08;;;;;;;17.26;31.07;103146.41;1836252;78;21556;-65
2022/02/13 09:33:19;;;;;;;4.35;1.80;;;;;;;17.42;30.61;103137.52;1836308;78;21079;-65
2022/02/13 09:35:50;;;;;;;3.60;1.90;;;;;;;17.74;30.43;103140.98;1836279;78;21470;-65
2022/02/13 09:38:18;;;;;;;4.83;1.75;;;;;;;18.10;30.12;103139.45;1836427;78;21040;-65
2022/02/13 09:40:48;;;;;;;3.75;1.60;;;;;;;18.40;29.97;103140.67;1836313;78;21153;-65
2022/02/13 09:43:20;;;;;;;5.40;2.00;;;;;;;18.73;29.78;103131.09;1836303;78;21494;-64
2022/02/13 09:45:51;;;;;;;15.58;2.40;;;;;;;18.10;29.38;103132.31;1836513;78;21027;-64
2022/02/13 09:48:22;;;;;;;4.33;1.67;;;;;;;17.94;29.43;103140.39;1836164;78;21052;-64
2022/02/13 09:50:51;;;;;;;7.78;1.55;;;;;;;17.83;28.23;103129.17;1836152;78;21051;-64
2022/02/13 09:53:20;;;;;;;3.47;1.20;;;;;;;17.24;28.12;103125.61;1836422;78;21055;-64
2022/02/13 09:55:49;;;;;;;4.58;1.45;;;;;;;16.46;29.22;103123.30;1836319;78;21079;-64
2022/02/13 09:58:19;;;;;;;5.95;1.80;;;;;;;14.82;30.85;103125.16;1836323;78;21485;-64
2022/02/13 10:00:54;;;;;;;3.83;1.87;;;;;;;13.25;32.35;103121.77;1836330;78;21126;-66
2022/02/13 10:03:34;;;;;;;3.83;1.27;;;;;;;12.08;34.28;103123.34;1836496;78;21067;-65
2022/02/13 10:06:12;;;;;;;5.60;1.30;;;;;;;11.59;35.06;103130.66;1847911;78;21094;-65
2022/02/13 10:08:49;;;;;;;4.10;1.50;;;;;;;10.82;36.06;103126.95;1846992;78;21521;-64
2022/02/13 10:11:28;;;;;;;3.98;2.00;;;;;;;10.28;37.07;103119.52;1848002;78;21039;-64
2022/02/13 10:14:18;;;;;;;5.53;1.80;;;;;;;9.63;37.80;103123.37;1875678;76;21127;-64
2022/02/13 10:16:55;;;;;;;3.20;1.95;;;;;;;10.15;37.90;103124.34;1829223;78;21125;-64
2022/02/13 10:19:22;;;;;;;4.80;1.50;;;;;;;12.07;35.76;103101.80;1879798;76;21604;-63
2022/02/13 10:21:52;;;;;;;4.65;1.90;;;;;;;13.83;33.95;103097.65;1875745;76;21120;-64
2022/02/13 10:24:28;;;;;;;10.45;2.17;;;;;;;15.25;32.52;103095.09;1829299;78;21201;-65
2022/02/13 10:27:18;;;;;;;4.03;2.22;;;;;;;15.81;31.32;103083.70;1881119;76;21053;-64
2022/02/13 10:29:50;;;;;;;4.37;1.67;;;;;;;14.91;31.88;103077.69;1881130;76;21100;-66
2022/02/13 10:32:28;;;;;;;2.83;1.90;;;;;;;13.45;32.99;103088.93;1880674;76;21609;-65
2022/02/13 10:35:00;;;;;;;8.00;2.25;;;;;;;11.93;34.65;103093.55;1881138;76;21038;-63
2022/02/13 10:37:51;;;;;;;7.37;2.00;;;;;;;10.58;36.43;103092.75;1881282;76;21534;-63
2022/02/13 10:40:32;;;;;;;6.00;2.12;;;;;;;9.80;37.73;103088.33;1881203;75;21123;-66
2022/02/13 10:43:11;;;;;;;2.72;1.60;;;;;;;9.24;38.86;103084.23;1881171;76;21159;-64
2022/02/13 10:45:41;;;;;;;3.55;1.80;;;;;;;8.86;39.65;103078.34;1881271;76;21017;-64
2022/02/13 10:48:11;;;;;;;6.12;3.92;;;;;;;8.50;40.19;103085.13;1881142;76;21496;-64
2022/02/13 10:50:41;;;;;;;4.80;2.47;;;;;;;9.52;39.49;103083.01;1881067;76;21488;-65
2022/02/13 10:53:11;;;;;;;4.50;1.87;;;;;;;10.38;38.43;103079.19;1881226;75;21041;-65
2022/02/13 10:55:40;;;;;;;2.90;2.02;;;;;;;10.09;38.51;103076.52;1881120;75;21554;-65
2022/02/13 10:58:09;;;;;;;6.20;2.45;;;;;;;11.35;37.06;103068.34;1881155;76;21526;-65
2022/02/13 11:00:39;;;;;;;9.65;2.52;;;;;;;11.34;36.65;103064.38;1881145;76;21077;-64
2022/02/13 11:03:08;;;;;;;4.95;2.10;;;;;;;10.65;37.31;103062.89;1881067;76;21042;-65
2022/02/13 11:05:40;;;;;;;3.90;2.55;;;;;;;10.28;37.94;103057.64;1881075;75;21543;-65
2022/02/13 11:08:14;;;;;;;2.75;1.30;;;;;;;10.39;38.16;103057.22;1881213;75;21081;-65
2022/02/13 11:10:47;;;;;;;3.87;1.75;;;;;;;11.65;36.90;103048.39;1881062;75;21437;-64
2022/02/13 11:13:16;;;;;;;5.70;1.17;;;;;;;11.38;37.02;103049.00;1880458;76;21497;-64
2022/02/13 11:15:46;;;;;;;2.08;1.07;;;;;;;10.38;37.76;103050.22;1878262;76;21496;-65
2022/02/13 11:18:24;;;;;;;3.70;1.60;;;;;;;9.41;38.94;103050.55;1878350;76;21009;-65
2022/02/13 11:20:55;;;;;;;3.25;1.20;;;;;;;8.93;40.05;103051.67;1878412;75;21038;-65
2022/02/13 11:23:26;;;;;;;4.10;1.87;;;;;;;10.40;38.50;103048.45;1878297;76;21037;-65
2022/02/13 11:26:06;;;;;;;9.48;1.85;;;;;;;11.65;36.57;103031.23;1878342;76;21582;-65
2022/02/13 11:28:49;;;;;;;3.37;1.10;;;;;;;12.42;35.64;103029.30;1878329;75;21111;-66
2022/02/13 11:31:40;;;;;;;1.22;1.00;;;;;;;12.85;35.18;103023.52;1878453;75;21061;-65
2022/02/13 11:34:11;;;;;;;3.27;1.80;;;;;;;13.34;34.55;103020.27;1878352;76;21163;-66
2022/02/13 11:36:52;;;;;;;3.42;1.82;;;;;;;12.41;35.07;103018.28;1878352;75;21009;-66
2022/02/13 11:39:42;;;;;;;2.65;1.42;;;;;;;12.54;35.44;103015.94;1878337;76;21576;-65
2022/02/13 11:42:15;;;;;;;3.00;1.60;;;;;;;12.06;36.03;103010.25;1878319;75;21100;-65
2022/02/13 11:44:45;;;;;;;6.25;2.40;;;;;;;12.44;36.06;103007.70;1878264;76;21579;-64